Coal Creek, Iowa
Current Conditions -  °F | °C
As of 4:55 AM on Wednesday 22 Oct 2014 (Local Time) from KOOA Reporting Station
Clear Clear  
Wind Chill: 34°   Ceiling: Unl
Heat Index: 39°   Visibility: 10mi
Dew Point: 37°   Wind: 8mph
Humidity: 91%   Direction: 120°ESE
Pressure: 30.25"   Gusts: NA
Location:  41.3798°N, 92.3541°W
Report Text: KOOA 220955Z AUTO 12007KT 10SM CLR 04/03 A3025 RMK AO2 T00400027
Loading
Personal Weather Stations






























Interactive Weather Map
Tropical Storm Tracking
New forecast layout! Learn more

10-Day Weather Forecast

Advertisements
Track Severe Weather on mobile